Terminal Aerodrome Forecast
Issued by NWS Grand Forks, ND

Home | Current Version | Previous Version | Text Only | Print | Product List | Glossary Off
Versions: 1 2 3 4 5 6 7 8 9 10 11 12 13 14 15 16 17 18 19 20

894
FTUS43 KFGF 251038 AAA
TAFFAR
TAF AMD
KFAR 251038Z 2511/2606 34017G25KT P6SM OVC007
     FM251700 36016G24KT P6SM OVC012
     FM252200 36017G25KT P6SM OVC020
     FM260000 01015G25KT P6SM OVC015=

USA.gov is the U.S. government's official web portal to all federal, state and local government web resources and services.